createdAt,value
2018-09-01T00:00:40.239Z,52.00
2018-09-01T00:03:08.801Z,52.30
2018-09-01T00:05:37.383Z,52.30
2018-09-01T00:08:05.955Z,52.60
2018-09-01T00:10:35.491Z,52.70
2018-09-01T00:13:04.039Z,52.70
2018-09-01T00:15:32.542Z,52.40
2018-09-01T00:18:01.393Z,52.70
2018-09-01T00:20:29.887Z,52.70
2018-09-01T00:22:58.373Z,52.70
2018-09-01T00:25:27.146Z,52.60
2018-09-01T00:27:55.636Z,52.70
2018-09-01T00:30:24.166Z,53.10
2018-09-01T00:32:52.781Z,53.20
2018-09-01T00:35:21.950Z,53.10
2018-09-01T00:37:55.688Z,53.50
2018-09-01T00:40:27.714Z,53.20
2018-09-01T00:42:58.182Z,53.20
2018-09-01T00:45:26.862Z,53.30
2018-09-01T00:47:55.426Z,53.50
2018-09-01T00:50:24.341Z,53.60
2018-09-01T00:52:52.853Z,53.90
2018-09-01T00:55:26.685Z,54.10
2018-09-01T00:58:20.883Z,54.10
2018-09-01T01:00:49.724Z,54.00
2018-09-01T01:03:18.247Z,54.00
2018-09-01T01:05:46.811Z,54.10
2018-09-01T01:08:15.287Z,53.80
2018-09-01T01:10:45.197Z,53.80
2018-09-01T01:13:13.676Z,53.70
2018-09-01T01:15:42.218Z,53.60
2018-09-01T01:18:10.713Z,53.50
2018-09-01T01:20:39.310Z,53.40
2018-09-01T01:23:07.791Z,53.40
2018-09-01T01:25:36.354Z,53.40
2018-09-01T01:28:05.019Z,53.60
2018-09-01T01:30:33.503Z,53.70
2018-09-01T01:33:02.016Z,53.80
2018-09-01T01:35:30.529Z,53.80
2018-09-01T01:37:59.006Z,53.80
2018-09-01T01:40:28.577Z,53.70
2018-09-01T01:42:57.704Z,53.80
2018-09-01T01:45:28.563Z,53.90
2018-09-01T01:47:58.533Z,53.70
2018-09-01T01:50:27.133Z,53.80
2018-09-01T01:52:56.683Z,53.70
2018-09-01T01:55:25.484Z,53.90
2018-09-01T01:57:54.159Z,53.80
2018-09-01T02:00:22.688Z,54.10
2018-09-01T02:02:51.158Z,54.00
2018-09-01T02:05:20.987Z,54.10
2018-09-01T02:07:50.596Z,54.40
2018-09-01T02:10:19.788Z,54.30
2018-09-01T02:12:48.305Z,54.30
2018-09-01T02:15:16.889Z,54.50
2018-09-01T02:17:45.476Z,54.60
2018-09-01T02:20:13.963Z,54.80
2018-09-01T02:22:42.523Z,54.80
2018-09-01T02:25:11.109Z,54.90
2018-09-01T02:27:39.644Z,55.10
2018-09-01T02:30:08.193Z,55.10
2018-09-01T02:32:36.924Z,55.20
2018-09-01T02:35:06.485Z,55.10
2018-09-01T02:37:35.620Z,55.10
2018-09-01T02:40:04.129Z,55.50
2018-09-01T02:42:33.370Z,55.70
2018-09-01T02:45:02.656Z,55.80
2018-09-01T02:47:31.388Z,55.60
2018-09-01T02:49:59.927Z,55.50
2018-09-01T02:52:28.429Z,55.50
2018-09-01T02:54:57.509Z,55.60
2018-09-01T02:57:26.122Z,55.70
2018-09-01T02:59:54.598Z,55.60
2018-09-01T03:02:28.297Z,55.80
2018-09-01T03:04:56.795Z,55.90
2018-09-01T03:07:25.475Z,55.90
2018-09-01T03:09:54.011Z,55.80
2018-09-01T03:12:22.553Z,55.90
2018-09-01T03:14:51.112Z,56.10
2018-09-01T03:17:19.592Z,56.20
2018-09-01T03:19:48.139Z,56.30
2018-09-01T03:22:18.311Z,56.40
2018-09-01T03:24:46.945Z,56.20
2018-09-01T03:27:15.568Z,56.20
2018-09-01T03:29:44.176Z,56.10
2018-09-01T03:32:14.096Z,56.30
2018-09-01T03:34:42.981Z,56.30
2018-09-01T03:37:11.851Z,56.70
2018-09-01T03:39:40.454Z,57.00
2018-09-01T03:42:09.109Z,57.40
2018-09-01T03:44:37.698Z,57.60
2018-09-01T03:47:06.556Z,57.60
2018-09-01T03:49:36.281Z,57.80
2018-09-01T03:52:05.099Z,57.70
2018-09-01T03:54:33.986Z,57.60
2018-09-01T03:57:02.929Z,57.60
2018-09-01T03:59:32.437Z,58.00
2018-09-01T04:02:00.984Z,57.70
2018-09-01T04:04:29.554Z,57.50
2018-09-01T04:06:58.016Z,57.70
2018-09-01T04:09:26.847Z,57.70
2018-09-01T04:11:55.345Z,58.00
2018-09-01T04:14:23.892Z,58.30
2018-09-01T04:16:52.410Z,58.40
2018-09-01T04:19:21.054Z,58.30
2018-09-01T04:21:50.506Z,58.50
2018-09-01T04:24:19.088Z,58.40
2018-09-01T04:26:47.867Z,58.60
2018-09-01T04:29:17.141Z,58.70
2018-09-01T04:31:46.891Z,58.90
2018-09-01T04:34:16.550Z,59.10
2018-09-01T04:36:45.479Z,59.20
2018-09-01T04:39:14.654Z,59.60
2018-09-01T04:41:44.498Z,60.20
2018-09-01T04:44:13.208Z,60.40
2018-09-01T04:46:42.315Z,60.70
2018-09-01T04:49:12.113Z,60.70
2018-09-01T04:51:41.273Z,61.00
2018-09-01T04:54:09.813Z,61.50
2018-09-01T04:56:38.374Z,61.80
2018-09-01T04:59:07.238Z,61.70
2018-09-01T05:01:36.800Z,61.20
2018-09-01T05:04:05.372Z,61.90
2018-09-01T05:06:33.901Z,62.50
2018-09-01T05:09:03.591Z,62.80
2018-09-01T05:11:32.108Z,62.50
2018-09-01T05:14:02.859Z,61.80
2018-09-01T05:16:32.541Z,62.00
2018-09-01T05:19:01.115Z,62.10
2018-09-01T05:21:29.626Z,61.90
2018-09-01T05:24:08.569Z,62.50
2018-09-01T05:26:37.247Z,62.70
2018-09-01T05:29:05.934Z,62.60
2018-09-01T05:31:34.534Z,62.30
2018-09-01T05:34:03.128Z,62.20
2018-09-01T05:36:32.681Z,62.60
2018-09-01T05:39:01.720Z,62.00
2018-09-01T05:41:30.950Z,62.20
2018-09-01T05:43:59.504Z,62.00
2018-09-01T05:46:28.157Z,61.50
2018-09-01T05:48:57.035Z,61.40
2018-09-01T05:51:25.565Z,61.10
2018-09-01T05:53:54.361Z,60.90
2018-09-01T05:56:23.603Z,60.60
2018-09-01T05:58:52.344Z,60.20
2018-09-01T06:01:21.813Z,60.10
2018-09-01T06:03:51.715Z,60.40
2018-09-01T06:06:20.340Z,60.30
2018-09-01T06:08:51.720Z,60.00
2018-09-01T06:11:20.310Z,59.70
2018-09-01T06:13:49.614Z,60.00
2018-09-01T06:16:18.651Z,59.80
2018-09-01T06:18:47.786Z,59.70
2018-09-01T06:21:16.388Z,59.20
2018-09-01T06:23:45.182Z,59.30
2018-09-01T06:26:15.790Z,59.40
2018-09-01T06:28:50.394Z,59.20
2018-09-01T06:31:20.030Z,59.20
2018-09-01T06:33:49.833Z,59.10
2018-09-01T06:36:19.240Z,58.60
2018-09-01T06:38:49.157Z,58.50
2018-09-01T06:41:18.009Z,58.20
2018-09-01T06:43:46.873Z,58.10
2018-09-01T06:49:02.341Z,58.50
2018-09-01T06:51:30.920Z,58.50
2018-09-01T06:53:59.441Z,58.40
2018-09-01T06:56:28.881Z,58.20
2018-09-01T06:58:57.550Z,58.00
2018-09-01T07:01:27.771Z,58.00
2018-09-01T07:03:56.596Z,57.60
2018-09-01T07:06:25.229Z,57.60
2018-09-01T07:08:53.872Z,57.20
2018-09-01T07:11:22.366Z,56.90
2018-09-01T07:13:50.984Z,56.70
2018-09-01T07:16:20.609Z,56.50
2018-09-01T07:18:50.608Z,56.40
2018-09-01T07:21:19.413Z,56.40
2018-09-01T07:23:49.072Z,55.80
2018-09-01T07:29:51.842Z,55.10
2018-09-01T07:32:20.380Z,54.80
2018-09-01T07:34:49.189Z,55.00
2018-09-01T07:37:17.925Z,54.50
2018-09-01T07:39:46.547Z,54.40
2018-09-01T07:42:15.146Z,54.50
2018-09-01T07:44:44.149Z,55.10
2018-09-01T07:47:12.900Z,55.20
2018-09-01T07:49:41.997Z,54.80
2018-09-01T07:52:13.755Z,54.30
2018-09-01T07:54:44.886Z,53.70
2018-09-01T07:57:20.560Z,53.30
2018-09-01T07:59:53.222Z,53.00
2018-09-01T08:02:24.843Z,53.20
2018-09-01T08:04:54.243Z,53.20
2018-09-01T08:07:29.132Z,53.00
2018-09-01T08:09:58.305Z,52.70
2018-09-01T08:12:28.928Z,52.60
2018-09-01T08:14:57.827Z,52.70
2018-09-01T08:17:29.730Z,52.70
2018-09-01T08:19:58.406Z,52.60
2018-09-01T08:22:29.648Z,52.30
2018-09-01T08:25:21.449Z,51.90
2018-09-01T08:27:51.050Z,51.50
2018-09-01T08:30:23.017Z,51.40
2018-09-01T08:32:53.128Z,51.30
2018-09-01T08:35:21.760Z,51.10
2018-09-01T08:38:14.712Z,51.30
2018-09-01T08:40:43.453Z,49.20
2018-09-01T08:43:38.588Z,49.50
2018-09-01T08:46:08.435Z,49.30
2018-09-01T08:48:37.602Z,48.50
2018-09-01T08:51:06.612Z,48.50
2018-09-01T08:53:35.361Z,47.40
2018-09-01T08:56:04.202Z,47.00
2018-09-01T08:58:33.074Z,46.30
2018-09-01T09:01:02.997Z,46.60
2018-09-01T09:03:31.721Z,46.40
2018-09-01T09:06:00.411Z,44.90
2018-09-01T09:08:29.834Z,44.60
2018-09-01T09:10:59.550Z,44.10
2018-09-01T09:13:48.362Z,43.90
2018-09-01T09:16:17.255Z,44.40
2018-09-01T09:18:45.967Z,43.50
2018-09-01T09:21:14.609Z,43.60
2018-09-01T09:23:55.418Z,43.60
2018-09-01T09:26:24.712Z,43.70
2018-09-01T09:28:54.142Z,43.60
2018-09-01T09:34:11.075Z,43.30
2018-09-01T09:36:40.073Z,43.10
2018-09-01T09:39:10.237Z,42.80
2018-09-01T09:41:39.113Z,42.50
2018-09-01T09:44:07.744Z,42.40
2018-09-01T09:46:36.945Z,42.10
2018-09-01T09:49:05.895Z,41.30
2018-09-01T09:51:40.126Z,41.20
2018-09-01T09:54:30.583Z,40.00
2018-09-01T09:57:04.508Z,40.20
2018-09-01T10:02:35.568Z,39.40
2018-09-01T10:05:06.168Z,39.30
2018-09-01T10:13:20.556Z,39.00
2018-09-01T10:15:57.268Z,39.20
2018-09-01T10:26:22.127Z,39.40
2018-09-01T10:28:50.783Z,39.10
2018-09-01T10:31:19.360Z,38.50
2018-09-01T10:37:19.271Z,35.30
2018-09-01T10:39:48.848Z,34.90
2018-09-01T10:42:35.203Z,34.60
2018-09-01T10:45:09.696Z,35.00
2018-09-01T10:50:41.635Z,33.10
2018-09-01T10:53:10.930Z,32.70
2018-09-01T10:55:51.580Z,32.90
2018-09-01T10:58:29.993Z,32.10
2018-09-01T11:00:58.740Z,32.80
2018-09-01T11:03:27.410Z,33.50
2018-09-01T11:06:15.888Z,34.10
2018-09-01T11:08:45.286Z,33.70
2018-09-01T11:11:14.892Z,33.20
2018-09-01T11:13:44.371Z,32.80
2018-09-01T11:16:14.135Z,32.50
2018-09-01T11:18:43.132Z,32.60
2018-09-01T11:21:13.443Z,32.80
2018-09-01T11:23:45.196Z,32.50
2018-09-01T11:26:14.196Z,31.60
2018-09-01T11:28:43.978Z,31.10
2018-09-01T11:31:12.705Z,30.90
2018-09-01T11:33:41.385Z,30.80
2018-09-01T11:36:11.048Z,31.60
2018-09-01T11:38:40.216Z,31.90
2018-09-01T11:41:08.897Z,31.80
2018-09-01T11:56:47.591Z,32.20
2018-09-01T12:04:28.642Z,32.50
2018-09-01T12:06:57.347Z,32.20
2018-09-01T12:09:56.638Z,32.00
2018-09-01T12:54:58.878Z,32.30
2018-09-01T12:57:27.500Z,30.20
2018-09-01T12:59:56.819Z,30.00
2018-09-01T13:02:26.240Z,30.60
2018-09-01T13:04:54.773Z,31.00
2018-09-01T13:07:23.318Z,31.50
2018-09-01T13:09:52.910Z,31.60
2018-09-01T13:12:21.455Z,31.20
2018-09-01T13:14:50.116Z,31.40
2018-09-01T13:17:18.614Z,31.30
2018-09-01T13:19:47.195Z,31.10
2018-09-01T13:22:15.782Z,30.10
2018-09-01T13:24:44.387Z,30.30
2018-09-01T13:27:12.876Z,30.00
2018-09-01T13:29:41.429Z,30.60
2018-09-01T13:32:10.020Z,30.50
2018-09-01T13:34:38.856Z,30.30
2018-09-01T13:37:07.388Z,29.50
2018-09-01T13:39:36.108Z,29.60
2018-09-01T13:42:11.699Z,29.70
2018-09-01T13:44:54.197Z,29.60
2018-09-01T13:47:24.275Z,29.60
2018-09-01T13:50:01.571Z,29.90
2018-09-01T13:55:46.528Z,29.80
2018-09-01T14:13:14.217Z,30.80
2018-09-01T14:15:42.697Z,31.50
2018-09-01T14:18:21.274Z,31.60
2018-09-01T14:20:54.990Z,31.30
2018-09-01T14:23:37.410Z,31.30
2018-09-01T14:29:21.244Z,31.10
2018-09-01T14:44:54.673Z,30.60
2018-09-01T14:50:22.612Z,31.00
2018-09-01T15:08:55.888Z,30.70
2018-09-01T15:11:43.867Z,31.60
2018-09-01T15:18:35.484Z,32.00
2018-09-01T15:21:05.646Z,31.50
2018-09-01T15:23:34.433Z,31.60
2018-09-01T15:26:02.923Z,32.10
2018-09-01T15:28:37.620Z,31.90
2018-09-01T15:31:08.494Z,32.00
2018-09-01T15:33:37.228Z,32.50
2018-09-01T15:36:06.016Z,32.30
2018-09-01T15:38:34.901Z,32.60
2018-09-01T15:41:04.263Z,32.90
2018-09-01T15:43:32.920Z,33.00
2018-09-01T15:46:03.950Z,33.40
2018-09-01T15:48:32.704Z,33.70
2018-09-01T15:51:01.376Z,33.80
2018-09-01T15:53:30.445Z,33.50
2018-09-01T15:56:02.596Z,33.50
2018-09-01T15:58:31.674Z,33.50
2018-09-01T16:01:07.973Z,33.30
2018-09-01T16:03:37.610Z,32.80
2018-09-01T16:06:14.500Z,32.70
2018-09-01T16:08:45.723Z,32.90
2018-09-01T16:11:14.758Z,32.70
2018-09-01T16:13:45.128Z,32.60
2018-09-01T16:16:25.115Z,32.00
2018-09-01T16:18:56.205Z,32.70
2018-09-01T16:21:25.461Z,32.30
2018-09-01T16:24:11.286Z,32.40
2018-09-01T16:26:48.341Z,32.50
2018-09-01T16:29:20.197Z,32.30
2018-09-01T16:32:03.257Z,32.20
2018-09-01T16:34:36.305Z,32.50
2018-09-01T16:55:25.321Z,33.40
2018-09-01T16:59:41.745Z,33.70
2018-09-01T18:29:21.227Z,38.50
2018-09-01T18:31:49.793Z,38.80
2018-09-01T18:34:18.354Z,38.90
2018-09-01T18:36:47.115Z,39.10
2018-09-01T19:11:56.213Z,40.60
2018-09-01T19:14:28.014Z,40.60
2018-09-01T19:17:07.686Z,40.80
2018-09-01T19:19:42.796Z,41.00
2018-09-01T19:22:19.703Z,41.10
2018-09-01T19:25:09.125Z,41.10
2018-09-01T19:54:56.404Z,42.50
2018-09-01T19:57:29.304Z,42.60
2018-09-01T19:59:58.281Z,42.70
2018-09-01T20:02:27.009Z,42.90
2018-09-01T20:04:57.707Z,42.90
2018-09-01T20:07:26.475Z,42.90
2018-09-01T20:09:55.406Z,43.20
2018-09-01T20:12:24.413Z,43.20
2018-09-01T20:14:53.150Z,43.30
2018-09-01T20:17:21.946Z,43.60
2018-09-01T20:20:14.542Z,43.70
2018-09-01T20:22:43.685Z,44.00
2018-09-01T20:25:12.506Z,44.20
2018-09-01T20:27:41.367Z,44.10
2018-09-01T20:58:00.008Z,45.60
2018-09-01T21:00:28.841Z,46.00
2018-09-01T21:04:57.580Z,46.20
2018-09-01T21:07:46.725Z,46.10
2018-09-01T21:10:15.463Z,46.20
2018-09-01T21:12:46.386Z,46.00
2018-09-01T21:15:15.097Z,46.20
2018-09-01T21:48:29.110Z,47.70
2018-09-01T21:50:59.308Z,47.80
2018-09-01T22:02:25.205Z,48.10
2018-09-01T22:04:59.161Z,48.20
2018-09-01T22:07:28.753Z,48.10
2018-09-01T22:09:57.401Z,48.10
2018-09-01T22:12:26.003Z,48.10
2018-09-01T22:14:55.036Z,48.40
2018-09-01T22:17:24.631Z,48.60
2018-09-01T22:19:53.285Z,48.80
2018-09-01T22:22:21.929Z,49.00
2018-09-01T22:24:51.436Z,49.30
2018-09-01T22:27:20.182Z,49.30
2018-09-01T22:29:48.794Z,49.30
2018-09-01T22:32:17.518Z,49.30
2018-09-01T22:34:46.379Z,49.50
2018-09-01T22:37:15.046Z,49.60
2018-09-01T22:39:43.630Z,49.70
2018-09-01T22:42:12.252Z,49.80
2018-09-01T22:44:40.908Z,49.70
2018-09-01T22:47:13.775Z,49.60
2018-09-01T22:49:42.510Z,49.60
2018-09-01T22:52:11.262Z,49.80
2018-09-01T22:54:39.858Z,49.80
2018-09-01T22:57:08.608Z,49.70
2018-09-01T22:59:37.320Z,49.90
2018-09-01T23:02:06.105Z,50.00
2018-09-01T23:04:35.994Z,50.00
2018-09-01T23:07:04.823Z,50.10
2018-09-01T23:09:34.395Z,51.00
2018-09-01T23:12:03.642Z,50.30
2018-09-01T23:14:32.878Z,50.20
2018-09-01T23:17:01.587Z,50.60
2018-09-01T23:19:30.275Z,50.60
2018-09-01T23:21:58.945Z,50.60
2018-09-01T23:24:27.600Z,50.80
2018-09-01T23:26:56.205Z,50.90
2018-09-01T23:29:24.886Z,51.00
2018-09-01T23:31:53.642Z,51.10
2018-09-01T23:34:27.041Z,51.20
2018-09-01T23:37:16.340Z,51.40
2018-09-01T23:39:45.248Z,51.50
2018-09-01T23:42:22.161Z,51.50
2018-09-01T23:44:50.838Z,51.90
2018-09-01T23:47:19.594Z,52.20
2018-09-01T23:49:48.197Z,52.20
2018-09-01T23:52:17.124Z,52.30
2018-09-01T23:54:46.041Z,52.30
2018-09-01T23:57:14.568Z,52.50
2018-09-01T23:59:43.258Z,52.50
